Time;durP1;ratioP1;P1;durP2;ratioP2;P2;SDS_P1;SDS_P2;PMS_P1;PMS_P2;Temp;Humidity;BMP_temperature;BMP_pressure;BME280_temperature;BME280_humidity;BME280_pressure;Samples;Min_cycle;Max_cycle;Signal;HPM_P1;HPM_P2
2023/01/06 00:01:46;;;;;;;32.72;9.88;;;;;;;;;;6203874;23;20013;-91
2023/01/06 00:04:12;;;;;;;32.80;8.90;;;;;;;;;;6209295;23;20004;-92
2023/01/06 00:06:46;;;;;;;32.95;8.48;;;;;;;;;;6184611;23;20023;-92
2023/01/06 00:09:12;;;;;;;23.38;5.07;;;;;;;;;;6209849;23;20008;-91
2023/01/06 00:11:38;;;;;;;27.15;8.38;;;;;;;;;;6183816;23;20475;-92
2023/01/06 00:14:07;;;;;;;42.83;7.80;;;;;;;;;;6209914;23;20475;-92
2023/01/06 00:16:44;;;;;;;22.33;6.45;;;;;;;;;;6179861;23;20005;-92
2023/01/06 00:19:11;;;;;;;41.72;8.55;;;;;;;;;;6186168;23;20256;-92
2023/01/06 00:21:41;;;;;;;21.42;6.30;;;;;;;;;;6210152;23;20570;-92
2023/01/06 00:24:10;;;;;;;34.65;8.20;;;;;;;;;;6209068;23;20421;-92
2023/01/06 00:26:36;;;;;;;35.72;7.35;;;;;;;;;;6185337;23;20017;-91
2023/01/06 00:29:03;;;;;;;21.20;5.63;;;;;;;;;;6210202;23;20483;-92
2023/01/06 00:31:31;;;;;;;33.83;7.03;;;;;;;;;;6210974;22;20100;-92
2023/01/06 00:33:58;;;;;;;24.95;5.80;;;;;;;;;;6185342;23;20109;-91
2023/01/06 00:36:51;;;;;;;30.73;6.18;;;;;;;;;;6209675;23;20005;-92
2023/01/06 00:39:17;;;;;;;22.88;4.88;;;;;;;;;;6209767;23;20008;-91
2023/01/06 00:44:28;;;;;;;30.85;7.20;;;;;;;;;;6211131;23;20361;-92
2023/01/06 00:47:18;;;;;;;31.17;5.97;;;;;;;;;;6185975;23;20091;-92
2023/01/06 00:49:44;;;;;;;20.33;4.85;;;;;;;;;;6197895;23;20012;-92
2023/01/06 00:52:10;;;;;;;19.85;5.97;;;;;;;;;;6209246;23;20070;-91
2023/01/06 00:54:36;;;;;;;23.10;3.88;;;;;;;;;;6209948;23;20008;-92
2023/01/06 00:57:02;;;;;;;31.15;6.00;;;;;;;;;;6208504;23;20433;-91
2023/01/06 00:59:29;;;;;;;28.00;5.88;;;;;;;;;;6209398;23;20421;-93
2023/01/06 01:01:58;;;;;;;36.00;6.65;;;;;;;;;;6209969;23;20437;-92
2023/01/06 01:04:25;;;;;;;22.00;5.32;;;;;;;;;;6209573;23;20004;-92
2023/01/06 01:06:59;;;;;;;32.35;5.60;;;;;;;;;;6207718;23;20005;-92
2023/01/06 01:09:32;;;;;;;29.38;6.20;;;;;;;;;;6208758;23;20059;-92
2023/01/06 01:12:09;;;;;;;19.25;4.13;;;;;;;;;;6207572;23;20009;-92
2023/01/06 01:14:39;;;;;;;18.90;5.78;;;;;;;;;;6208795;23;20796;-91
2023/01/06 01:17:08;;;;;;;19.35;3.63;;;;;;;;;;6209592;23;20016;-92
2023/01/06 01:19:35;;;;;;;27.85;4.03;;;;;;;;;;6209482;23;20001;-92
2023/01/06 01:22:12;;;;;;;21.25;5.47;;;;;;;;;;6208907;23;20012;-92
2023/01/06 01:24:40;;;;;;;13.50;4.05;;;;;;;;;;6185821;23;20039;-92
2023/01/06 01:27:10;;;;;;;17.50;3.30;;;;;;;;;;6207550;23;20015;-91
2023/01/06 01:29:36;;;;;;;21.70;5.55;;;;;;;;;;6184454;23;20066;-93
2023/01/06 01:32:02;;;;;;;12.98;4.35;;;;;;;;;;6188055;22;20051;-92
2023/01/06 01:34:28;;;;;;;11.23;4.18;;;;;;;;;;6214120;23;20011;-92
2023/01/06 01:37:10;;;;;;;11.30;2.97;;;;;;;;;;6189835;23;20027;-93
2023/01/06 01:39:47;;;;;;;18.13;2.13;;;;;;;;;;6210808;23;20031;-92
2023/01/06 01:42:16;;;;;;;16.85;4.03;;;;;;;;;;6192287;23;20023;-92
2023/01/06 01:44:54;;;;;;;14.43;2.88;;;;;;;;;;6215076;23;20505;-92
2023/01/06 01:47:42;;;;;;;18.92;3.60;;;;;;;;;;6215158;23;20004;-92
2023/01/06 01:50:30;;;;;;;12.27;3.20;;;;;;;;;;6214367;23;20016;-92
2023/01/06 01:53:22;;;;;;;12.35;2.75;;;;;;;;;;6215069;23;20008;-93
2023/01/06 01:56:05;;;;;;;18.08;2.95;;;;;;;;;;6201576;23;20004;-92
2023/01/06 01:58:38;;;;;;;13.15;3.08;;;;;;;;;;6214922;23;20076;-92
2023/01/06 02:04:01;;;;;;;14.33;3.23;;;;;;;;;;6244146;23;20015;-92
2023/01/06 02:06:27;;;;;;;8.63;2.70;;;;;;;;;;6212461;23;20695;-92
2023/01/06 02:09:04;;;;;;;13.32;2.55;;;;;;;;;;6215617;23;20069;-92
2023/01/06 02:11:36;;;;;;;34.30;3.40;;;;;;;;;;6213284;23;20039;-92
2023/01/06 02:14:12;;;;;;;11.70;2.90;;;;;;;;;;6213271;23;20004;-92
2023/01/06 02:16:43;;;;;;;5.85;1.77;;;;;;;;;;6213510;23;20008;-91
2023/01/06 02:19:25;;;;;;;15.82;2.90;;;;;;;;;;6213358;23;20036;-91
2023/01/06 02:21:51;;;;;;;9.00;2.78;;;;;;;;;;6212360;23;20011;-92
2023/01/06 02:24:36;;;;;;;9.63;2.75;;;;;;;;;;6212411;23;20008;-91
2023/01/06 02:27:19;;;;;;;5.35;2.53;;;;;;;;;;6214122;23;20012;-92
2023/01/06 02:29:45;;;;;;;7.80;2.72;;;;;;;;;;6212774;23;20008;-92
2023/01/06 02:32:14;;;;;;;6.07;2.95;;;;;;;;;;6215377;22;20013;-91
2023/01/06 02:34:58;;;;;;;7.88;2.60;;;;;;;;;;6212709;23;20383;-91
2023/01/06 02:38:12;;;;;;;13.57;4.72;;;;;;;;;;6211478;23;20091;-92
2023/01/06 02:40:53;;;;;;;;;;;;;;;;;;;;;
2023/01/06 02:43:45;;;;;;;5.85;3.13;;;;;;;;;;6240407;23;20095;-93
2023/01/06 02:46:27;;;;;;;5.07;1.90;;;;;;;;;;6215129;23;20031;-92
2023/01/06 02:48:56;;;;;;;10.10;2.83;;;;;;;;;;6214504;23;20015;-91
2023/01/06 02:51:26;;;;;;;11.10;3.95;;;;;;;;;;6215037;23;20019;-91
2023/01/06 02:54:07;;;;;;;6.40;3.47;;;;;;;;;;6213572;23;20030;-91
2023/01/06 02:56:37;;;;;;;6.35;2.15;;;;;;;;;;6211861;23;20453;-92
2023/01/06 02:59:05;;;;;;;10.85;4.03;;;;;;;;;;6211480;23;20395;-91
2023/01/06 03:01:34;;;;;;;12.20;2.50;;;;;;;;;;6213390;23;20012;-91
2023/01/06 03:04:06;;;;;;;19.83;3.55;;;;;;;;;;6239792;23;20039;-91
2023/01/06 03:06:34;;;;;;;6.95;2.95;;;;;;;;;;6213702;23;20011;-90
2023/01/06 03:09:01;;;;;;;13.80;2.78;;;;;;;;;;6212829;23;20008;-90
2023/01/06 03:11:28;;;;;;;13.80;2.95;;;;;;;;;;6213456;23;20004;-91
2023/01/06 03:13:57;;;;;;;10.75;3.50;;;;;;;;;;6212144;23;20035;-91
2023/01/06 03:16:23;;;;;;;4.32;2.25;;;;;;;;;;6212555;23;20010;-90
2023/01/06 03:18:50;;;;;;;17.05;2.17;;;;;;;;;;6213165;23;20493;-90
2023/01/06 03:21:19;;;;;;;15.02;2.88;;;;;;;;;;6211977;23;20015;-91
2023/01/06 03:23:46;;;;;;;7.78;2.63;;;;;;;;;;6212152;23;20460;-90
2023/01/06 03:26:12;;;;;;;11.07;2.13;;;;;;;;;;6211808;23;20015;-89
2023/01/06 03:28:38;;;;;;;11.70;2.92;;;;;;;;;;6187521;23;20050;-91
2023/01/06 03:31:34;;;;;;;10.30;3.40;;;;;;;;;;6211690;23;20480;-91
2023/01/06 03:34:15;;;;;;;18.80;2.70;;;;;;;;;;6156689;23;20017;-91
2023/01/06 03:36:59;;;;;;;5.28;2.58;;;;;;;;;;6211562;23;20005;-91
2023/01/06 03:39:39;;;;;;;8.18;2.50;;;;;;;;;;6211459;23;20440;-91
2023/01/06 03:45:09;;;;;;;6.13;2.83;;;;;;;;;;6240290;23;20768;-91
2023/01/06 03:47:46;;;;;;;9.25;2.95;;;;;;;;;;6214320;23;20429;-91
2023/01/06 03:50:17;;;;;;;8.43;2.72;;;;;;;;;;6213733;23;20591;-91
2023/01/06 03:52:47;;;;;;;6.68;3.17;;;;;;;;;;6211682;23;20535;-91
2023/01/06 03:55:16;;;;;;;9.68;2.58;;;;;;;;;;6189812;23;20317;-90
2023/01/06 03:57:47;;;;;;;8.98;3.25;;;;;;;;;;6239162;23;20494;-91
2023/01/06 04:00:19;;;;;;;11.52;3.80;;;;;;;;;;6213053;23;20013;-91
2023/01/06 04:02:46;;;;;;;6.70;2.55;;;;;;;;;;6212087;23;20012;-91
2023/01/06 04:05:14;;;;;;;6.60;2.90;;;;;;;;;;6189222;23;20018;-90
2023/01/06 04:07:40;;;;;;;9.48;3.83;;;;;;;;;;6211699;23;20007;-91
2023/01/06 04:10:13;;;;;;;12.35;2.67;;;;;;;;;;6188676;23;20476;-91
2023/01/06 04:12:40;;;;;;;6.13;2.90;;;;;;;;;;6239284;23;20436;-90
2023/01/06 04:15:07;;;;;;;9.13;3.03;;;;;;;;;;6239885;23;20011;-91
2023/01/06 04:17:33;;;;;;;7.35;3.97;;;;;;;;;;6213393;23;20050;-90
2023/01/06 04:19:59;;;;;;;5.47;3.30;;;;;;;;;;6211551;23;20009;-90
2023/01/06 04:22:25;;;;;;;5.07;3.05;;;;;;;;;;6187796;23;20019;-91
2023/01/06 04:24:51;;;;;;;10.50;3.10;;;;;;;;;;6213235;23;20016;-90
2023/01/06 04:27:24;;;;;;;7.57;4.22;;;;;;;;;;6187608;23;20099;-90
2023/01/06 04:29:50;;;;;;;6.18;3.60;;;;;;;;;;6213158;23;20012;-90
2023/01/06 04:32:16;;;;;;;6.78;2.85;;;;;;;;;;6187795;22;20051;-90
2023/01/06 04:34:42;;;;;;;6.10;3.55;;;;;;;;;;6188257;23;20012;-90
2023/01/06 04:37:08;;;;;;;19.52;4.50;;;;;;;;;;6211850;23;20004;-90
2023/01/06 04:39:34;;;;;;;8.20;3.75;;;;;;;;;;6187623;23;20372;-90
2023/01/06 04:42:00;;;;;;;6.95;3.70;;;;;;;;;;6187074;23;20020;-92
2023/01/06 04:44:26;;;;;;;10.70;3.80;;;;;;;;;;6188914;23;20016;-92
2023/01/06 04:46:52;;;;;;;5.97;3.40;;;;;;;;;;6187506;23;20004;-92
2023/01/06 04:49:19;;;;;;;4.22;1.98;;;;;;;;;;6213828;23;20429;-92
2023/01/06 04:51:45;;;;;;;8.35;2.88;;;;;;;;;;6212386;23;20004;-92
2023/01/06 04:54:11;;;;;;;5.93;2.60;;;;;;;;;;6212149;23;20004;-93
2023/01/06 04:56:37;;;;;;;6.55;3.00;;;;;;;;;;6189046;23;20054;-92
2023/01/06 04:59:03;;;;;;;3.92;2.30;;;;;;;;;;6187425;23;20018;-92
2023/01/06 05:01:29;;;;;;;8.52;2.53;;;;;;;;;;6187766;23;20098;-92
2023/01/06 05:03:55;;;;;;;5.80;3.15;;;;;;;;;;6212616;23;20008;-91
2023/01/06 05:06:24;;;;;;;1.42;1.33;;;;;;;;;;6189479;23;20019;-92
2023/01/06 05:08:51;;;;;;;3.42;2.00;;;;;;;;;;6215690;23;20028;-91
2023/01/06 05:11:24;;;;;;;5.65;2.00;;;;;;;;;;6192038;23;20004;-91
2023/01/06 05:13:50;;;;;;;4.47;2.72;;;;;;;;;;6216596;23;20557;-92
2023/01/06 05:16:16;;;;;;;6.65;1.67;;;;;;;;;;6215558;23;20004;-91
2023/01/06 05:18:44;;;;;;;1.90;1.50;;;;;;;;;;6213266;23;20005;-92
2023/01/06 05:21:11;;;;;;;6.15;2.08;;;;;;;;;;6213519;23;20624;-92
2023/01/06 05:23:37;;;;;;;9.18;2.47;;;;;;;;;;6212542;23;20416;-91
2023/01/06 05:26:04;;;;;;;3.70;2.03;;;;;;;;;;6189274;23;20317;-92
2023/01/06 05:28:30;;;;;;;4.03;1.25;;;;;;;;;;6213444;23;20762;-91
2023/01/06 05:31:03;;;;;;;5.38;1.90;;;;;;;;;;6186909;23;20023;-92
2023/01/06 05:33:30;;;;;;;7.53;2.42;;;;;;;;;;6210809;22;20086;-92
2023/01/06 05:36:00;;;;;;;8.65;2.47;;;;;;;;;;6207841;23;20135;-92
2023/01/06 05:38:26;;;;;;;6.35;2.30;;;;;;;;;;6181825;23;20860;-91
2023/01/06 05:40:53;;;;;;;6.60;2.30;;;;;;;;;;6207937;23;20555;-91
2023/01/06 05:43:23;;;;;;;4.63;1.80;;;;;;;;;;6208046;23;20011;-91
2023/01/06 05:45:49;;;;;;;4.65;2.90;;;;;;;;;;6207473;23;20319;-91
2023/01/06 05:48:15;;;;;;;6.22;3.70;;;;;;;;;;6208304;23;20001;-91
2023/01/06 05:50:43;;;;;;;4.80;3.22;;;;;;;;;;6183010;23;20009;-91
2023/01/06 05:53:09;;;;;;;5.72;2.97;;;;;;;;;;6181352;23;20470;-92
2023/01/06 05:55:35;;;;;;;6.32;3.90;;;;;;;;;;6183504;23;20013;-92
2023/01/06 05:58:01;;;;;;;6.00;4.15;;;;;;;;;;6206626;23;20009;-92
2023/01/06 06:00:27;;;;;;;5.40;3.20;;;;;;;;;;6209282;23;20433;-92
2023/01/06 06:02:53;;;;;;;7.40;4.40;;;;;;;;;;6185004;23;20025;-91
2023/01/06 06:05:23;;;;;;;5.50;4.05;;;;;;;;;;6185604;23;20095;-92
2023/01/06 06:08:02;;;;;;;7.50;4.95;;;;;;;;;;6209345;23;20005;-93
2023/01/06 06:10:29;;;;;;;18.85;3.72;;;;;;;;;;6183954;23;20024;-93
2023/01/06 06:16:05;;;;;;;8.00;5.07;;;;;;;;;;6202646;23;20111;-92
2023/01/06 06:18:31;;;;;;;7.40;4.28;;;;;;;;;;6208012;23;20011;-94
2023/01/06 06:27:33;;;;;;;10.15;4.18;;;;;;;;;;6207770;23;20515;-92
2023/01/06 06:40:29;;;;;;;6.85;3.45;;;;;;;;;;6240548;23;20092;-93
2023/01/06 06:49:41;;;;;;;9.57;4.88;;;;;;;;;;6147385;23;20028;-93
2023/01/06 07:14:38;;;;;;;4.95;2.85;;;;;;;;;;6092624;23;20037;-95
2023/01/06 07:23:11;;;;;;;4.32;3.03;;;;;;;;;;6214307;22;20044;-95
2023/01/06 07:25:44;;;;;;;6.78;3.30;;;;;;;;;;6232142;22;20023;-96
2023/01/06 07:28:10;;;;;;;3.08;2.28;;;;;;;;;;6221906;23;20066;-96
2023/01/06 07:30:39;;;;;;;3.28;2.50;;;;;;;;;;6222465;23;19997;-96
2023/01/06 07:33:09;;;;;;;1.95;1.60;;;;;;;;;;6222227;23;20004;-95
2023/01/06 07:35:35;;;;;;;4.68;2.05;;;;;;;;;;6222505;23;20056;-96
2023/01/06 07:38:02;;;;;;;2.47;1.88;;;;;;;;;;6221607;23;20003;-96
2023/01/06 07:40:28;;;;;;;1.75;1.45;;;;;;;;;;6196300;23;20074;-95
2023/01/06 07:42:54;;;;;;;4.53;1.70;;;;;;;;;;6195846;23;20013;-95
2023/01/06 07:45:20;;;;;;;3.42;1.98;;;;;;;;;;6197559;23;20012;-95
2023/01/06 07:47:46;;;;;;;1.85;0.98;;;;;;;;;;6198621;23;20015;-95
2023/01/06 08:00:36;;;;;;;5.75;1.88;;;;;;;;;;6207374;22;20034;-95
2023/01/06 08:03:04;;;;;;;8.38;2.17;;;;;;;;;;6158659;23;20493;-94
2023/01/06 08:05:32;;;;;;;6.22;2.83;;;;;;;;;;6183881;23;20447;-94
2023/01/06 08:08:11;;;;;;;11.02;1.75;;;;;;;;;;6185593;23;20113;-94
2023/01/06 08:10:53;;;;;;;4.30;1.02;;;;;;;;;;6163050;23;20035;-94
2023/01/06 08:13:21;;;;;;;4.00;1.73;;;;;;;;;;6190731;23;20039;-96
2023/01/06 08:15:50;;;;;;;12.02;2.25;;;;;;;;;;6184387;23;20596;-95
2023/01/06 08:18:16;;;;;;;2.45;1.00;;;;;;;;;;6158470;23;20013;-94
2023/01/06 08:20:48;;;;;;;7.90;1.60;;;;;;;;;;6161503;23;20017;-95
2023/01/06 08:23:35;;;;;;;3.55;1.02;;;;;;;;;;6189121;23;20012;-96
2023/01/06 08:26:06;;;;;;;12.32;2.28;;;;;;;;;;6242282;23;20134;-96
2023/01/06 08:28:42;;;;;;;4.10;0.68;;;;;;;;;;6241534;23;20062;-96
2023/01/06 08:31:19;;;;;;;4.80;1.95;;;;;;;;;;6194282;23;20031;-92
2023/01/06 08:33:47;;;;;;;5.88;0.63;;;;;;;;;;6189060;23;20014;-95
2023/01/06 08:36:16;;;;;;;1.63;0.80;;;;;;;;;;6235649;23;20008;-94
2023/01/06 08:38:42;;;;;;;3.28;1.05;;;;;;;;;;6238396;23;20033;-95
2023/01/06 08:41:11;;;;;;;4.03;0.95;;;;;;;;;;6189844;23;20046;-95
2023/01/06 08:43:39;;;;;;;7.80;1.30;;;;;;;;;;6238162;23;20004;-93
2023/01/06 08:46:06;;;;;;;3.10;0.55;;;;;;;;;;6214667;23;20028;-95
2023/01/06 08:48:34;;;;;;;3.60;0.75;;;;;;;;;;6237375;23;20004;-93
2023/01/06 08:51:29;;;;;;;17.60;1.33;;;;;;;;;;6239570;23;20504;-95
2023/01/06 08:54:13;;;;;;;3.75;1.10;;;;;;;;;;6242115;23;20053;-96
2023/01/06 08:56:42;;;;;;;6.70;0.77;;;;;;;;;;6153859;23;20006;-94
2023/01/06 08:59:11;;;;;;;8.10;0.80;;;;;;;;;;6176247;23;20009;-96
2023/01/06 09:01:37;;;;;;;2.70;0.47;;;;;;;;;;6152648;22;20017;-93
2023/01/06 09:04:05;;;;;;;1.27;0.40;;;;;;;;;;6126478;23;20124;-96
2023/01/06 09:06:32;;;;;;;8.18;1.55;;;;;;;;;;6151036;23;20019;-96
2023/01/06 09:08:58;;;;;;;1.85;0.85;;;;;;;;;;6151748;23;20025;-96
2023/01/06 09:11:25;;;;;;;8.18;1.15;;;;;;;;;;6126707;23;20321;-93
2023/01/06 09:13:51;;;;;;;6.55;0.95;;;;;;;;;;6151491;23;20024;-94
2023/01/06 09:16:17;;;;;;;8.55;0.98;;;;;;;;;;6151644;23;20052;-94
2023/01/06 09:18:48;;;;;;;9.05;1.27;;;;;;;;;;6151279;23;20112;-94
2023/01/06 09:21:17;;;;;;;6.45;0.47;;;;;;;;;;6128092;23;20016;-94
2023/01/06 09:23:43;;;;;;;10.23;0.82;;;;;;;;;;6151600;23;20453;-94
2023/01/06 09:26:09;;;;;;;2.30;0.98;;;;;;;;;;6129292;23;20017;-94
2023/01/06 09:28:35;;;;;;;7.85;0.70;;;;;;;;;;6180299;23;20040;-96
2023/01/06 09:31:07;;;;;;;12.45;1.50;;;;;;;;;;6183889;23;20111;-93
2023/01/06 09:33:33;;;;;;;3.97;0.85;;;;;;;;;;6184507;23;20012;-96
2023/01/06 09:35:59;;;;;;;8.57;1.00;;;;;;;;;;6183073;23;20428;-94
2023/01/06 09:38:26;;;;;;;8.43;1.05;;;;;;;;;;6181353;23;20024;-90
2023/01/06 09:41:05;;;;;;;16.55;2.03;;;;;;;;;;6181154;23;20692;-92
2023/01/06 09:43:50;;;;;;;10.60;1.75;;;;;;;;;;6207640;23;20008;-96
2023/01/06 09:46:34;;;;;;;6.30;0.88;;;;;;;;;;6207190;23;20090;-94
2023/01/06 09:49:09;;;;;;;12.65;1.58;;;;;;;;;;6205960;23;20004;-93
2023/01/06 09:51:36;;;;;;;16.63;1.77;;;;;;;;;;6207130;23;20012;-94
2023/01/06 09:54:12;;;;;;;5.55;1.30;;;;;;;;;;6156369;23;20579;-94
2023/01/06 10:00:15;;;;;;;1.58;0.77;;;;;;;;;;6190603;23;20004;-93
2023/01/06 10:02:42;;;;;;;23.20;2.00;;;;;;;;;;6236675;22;20012;-93
2023/01/06 10:05:36;;;;;;;8.27;1.95;;;;;;;;;;6237214;23;20062;-93
2023/01/06 10:08:14;;;;;;;9.35;1.73;;;;;;;;;;6167323;23;20014;-94
2023/01/06 10:10:48;;;;;;;3.83;0.50;;;;;;;;;;6237275;23;20011;-93
2023/01/06 10:13:40;;;;;;;14.27;1.98;;;;;;;;;;6238661;23;20011;-94
2023/01/06 10:16:09;;;;;;;12.93;1.65;;;;;;;;;;6238899;23;20010;-92
2023/01/06 10:18:44;;;;;;;10.45;1.05;;;;;;;;;;6236997;23;20004;-91
2023/01/06 10:21:14;;;;;;;10.05;1.65;;;;;;;;;;6239133;23;20000;-92
2023/01/06 10:23:48;;;;;;;4.03;1.15;;;;;;;;;;6239760;23;20432;-92
2023/01/06 10:26:31;;;;;;;4.68;1.45;;;;;;;;;;6238804;23;20447;-92
2023/01/06 10:29:01;;;;;;;14.45;2.17;;;;;;;;;;6239484;23;20000;-91
2023/01/06 10:31:31;;;;;;;11.45;1.40;;;;;;;;;;6238765;23;20004;-92
2023/01/06 10:33:58;;;;;;;7.10;1.30;;;;;;;;;;6237604;23;20012;-92
2023/01/06 10:36:30;;;;;;;2.58;0.70;;;;;;;;;;6241478;23;20514;-92
2023/01/06 10:38:57;;;;;;;7.97;1.73;;;;;;;;;;6238593;23;20033;-92
2023/01/06 10:41:26;;;;;;;9.40;1.58;;;;;;;;;;6238757;23;20018;-92
2023/01/06 10:43:52;;;;;;;11.65;1.70;;;;;;;;;;6239226;23;20344;-92
2023/01/06 10:46:19;;;;;;;10.63;1.00;;;;;;;;;;6189609;23;20554;-91
2023/01/06 10:48:48;;;;;;;8.60;1.67;;;;;;;;;;6239835;23;20090;-91
2023/01/06 10:51:30;;;;;;;3.83;1.17;;;;;;;;;;6189484;23;20023;-92
2023/01/06 10:53:57;;;;;;;7.32;1.17;;;;;;;;;;6239769;23;20436;-92
2023/01/06 10:56:24;;;;;;;6.55;1.17;;;;;;;;;;6239396;23;20436;-91
2023/01/06 10:58:56;;;;;;;8.93;1.55;;;;;;;;;;6238049;23;20094;-91
2023/01/06 11:01:24;;;;;;;4.82;1.08;;;;;;;;;;6240256;22;20024;-92
2023/01/06 11:04:10;;;;;;;14.00;2.28;;;;;;;;;;6212183;23;20008;-91
2023/01/06 11:06:44;;;;;;;5.32;1.48;;;;;;;;;;6214458;23;20432;-91
2023/01/06 11:09:29;;;;;;;12.43;1.20;;;;;;;;;;6213853;23;20036;-91
2023/01/06 11:11:56;;;;;;;7.60;1.38;;;;;;;;;;6214577;23;20008;-91
2023/01/06 11:14:25;;;;;;;30.65;1.70;;;;;;;;;;6215485;23;20476;-92
2023/01/06 11:17:02;;;;;;;9.77;1.40;;;;;;;;;;6213138;23;20087;-92
2023/01/06 11:19:34;;;;;;;11.68;2.05;;;;;;;;;;6215287;23;20084;-91
2023/01/06 11:22:00;;;;;;;7.88;0.88;;;;;;;;;;6213193;23;20066;-92
2023/01/06 11:24:26;;;;;;;10.75;1.40;;;;;;;;;;6213536;23;20039;-92
2023/01/06 11:26:56;;;;;;;8.77;1.23;;;;;;;;;;6215194;23;20432;-91
2023/01/06 11:29:33;;;;;;;7.18;1.63;;;;;;;;;;6214048;23;20479;-91
2023/01/06 11:32:02;;;;;;;7.88;1.55;;;;;;;;;;6213683;23;20040;-92
2023/01/06 11:34:29;;;;;;;11.65;1.90;;;;;;;;;;6213139;23;20008;-91
2023/01/06 11:36:55;;;;;;;7.18;1.42;;;;;;;;;;6187326;23;20462;-91
2023/01/06 11:39:21;;;;;;;11.77;1.75;;;;;;;;;;6214038;23;20009;-91
2023/01/06 11:41:49;;;;;;;17.30;1.90;;;;;;;;;;6212131;23;20018;-91
2023/01/06 11:44:15;;;;;;;7.47;1.70;;;;;;;;;;6213649;23;20099;-91
2023/01/06 11:46:47;;;;;;;13.10;1.83;;;;;;;;;;6215003;23;20016;-93
2023/01/06 11:49:16;;;;;;;3.70;1.35;;;;;;;;;;6214998;23;20019;-91
2023/01/06 11:51:42;;;;;;;10.70;2.42;;;;;;;;;;6213690;23;20012;-92
2023/01/06 11:54:27;;;;;;;6.97;1.85;;;;;;;;;;6213356;23;20095;-91
2023/01/06 11:57:14;;;;;;;13.77;1.75;;;;;;;;;;6213505;23;20016;-91
2023/01/06 11:59:46;;;;;;;7.65;1.23;;;;;;;;;;6212890;23;20000;-91
2023/01/06 12:02:17;;;;;;;13.55;1.85;;;;;;;;;;6213816;22;20416;-91
2023/01/06 12:04:47;;;;;;;3.80;0.75;;;;;;;;;;6238205;23;20016;-91
2023/01/06 12:07:20;;;;;;;4.18;1.30;;;;;;;;;;6236647;23;20119;-91
2023/01/06 12:09:48;;;;;;;8.70;1.23;;;;;;;;;;6238664;23;20039;-91
2023/01/06 12:12:20;;;;;;;6.38;1.52;;;;;;;;;;6237347;23;20012;-91
2023/01/06 12:14:46;;;;;;;7.25;1.67;;;;;;;;;;6238082;23;20008;-91
2023/01/06 12:17:31;;;;;;;7.82;2.03;;;;;;;;;;6237442;23;20196;-91
2023/01/06 12:20:01;;;;;;;12.20;1.92;;;;;;;;;;6235725;23;20011;-91
2023/01/06 12:22:27;;;;;;;12.55;2.90;;;;;;;;;;6235671;23;20733;-91
2023/01/06 12:24:55;;;;;;;5.00;1.25;;;;;;;;;;6238487;23;20021;-91
2023/01/06 12:27:31;;;;;;;8.15;1.90;;;;;;;;;;6238268;23;20066;-91
2023/01/06 12:30:00;;;;;;;9.85;1.85;;;;;;;;;;6238801;23;20004;-91
2023/01/06 12:32:30;;;;;;;12.50;2.10;;;;;;;;;;6237961;23;20070;-91
2023/01/06 12:35:05;;;;;;;4.55;1.40;;;;;;;;;;6238241;23;20008;-91
2023/01/06 12:37:35;;;;;;;14.02;2.08;;;;;;;;;;6238648;23;20446;-91
2023/01/06 12:40:12;;;;;;;6.85;1.83;;;;;;;;;;6239203;23;20039;-91
2023/01/06 12:42:45;;;;;;;6.50;1.90;;;;;;;;;;6237511;23;20235;-91
2023/01/06 12:45:20;;;;;;;12.43;1.77;;;;;;;;;;6237873;23;20008;-91
2023/01/06 12:47:47;;;;;;;12.80;2.03;;;;;;;;;;6237247;23;20506;-91
2023/01/06 12:50:32;;;;;;;10.68;2.17;;;;;;;;;;6237585;23;20012;-92
2023/01/06 12:53:04;;;;;;;18.30;2.65;;;;;;;;;;6237763;23;20040;-91
2023/01/06 12:55:51;;;;;;;11.10;1.88;;;;;;;;;;6236906;23;20008;-91
2023/01/06 12:58:40;;;;;;;8.27;1.60;;;;;;;;;;6211367;23;20004;-91
2023/01/06 13:01:24;;;;;;;5.47;1.30;;;;;;;;;;6201680;22;20170;-91
2023/01/06 13:04:04;;;;;;;10.77;1.73;;;;;;;;;;6207517;23;20020;-91
2023/01/06 13:06:31;;;;;;;8.35;1.52;;;;;;;;;;6208756;23;20406;-91
2023/01/06 13:09:09;;;;;;;14.98;1.25;;;;;;;;;;6207244;23;20015;-91
2023/01/06 13:11:41;;;;;;;15.15;2.22;;;;;;;;;;6208517;23;20016;-91
2023/01/06 13:14:11;;;;;;;8.88;1.52;;;;;;;;;;6207018;23;20032;-91
2023/01/06 13:16:49;;;;;;;7.82;1.58;;;;;;;;;;6206241;23;20004;-91
2023/01/06 13:19:20;;;;;;;15.00;2.47;;;;;;;;;;6208027;23;20009;-91
2023/01/06 13:21:47;;;;;;;5.22;1.33;;;;;;;;;;6207256;23;20100;-91
2023/01/06 13:24:31;;;;;;;5.30;1.02;;;;;;;;;;6208976;23;20429;-91
2023/01/06 13:27:07;;;;;;;9.73;1.30;;;;;;;;;;6207865;23;20059;-91
2023/01/06 13:29:36;;;;;;;5.33;1.37;;;;;;;;;;6206678;23;20013;-91
2023/01/06 13:32:05;;;;;;;3.75;1.10;;;;;;;;;;6206999;23;20251;-91
2023/01/06 13:34:58;;;;;;;12.90;1.75;;;;;;;;;;6206359;23;20451;-91
2023/01/06 13:37:24;;;;;;;4.75;1.00;;;;;;;;;;6207127;23;20008;-91
2023/01/06 13:39:55;;;;;;;14.73;2.33;;;;;;;;;;6206829;23;20005;-91
2023/01/06 13:42:29;;;;;;;5.85;1.23;;;;;;;;;;6205214;23;20009;-92
2023/01/06 13:44:55;;;;;;;6.60;0.82;;;;;;;;;;6205339;23;20004;-92
2023/01/06 13:47:21;;;;;;;16.35;2.13;;;;;;;;;;6180557;23;20009;-91
2023/01/06 13:49:48;;;;;;;4.55;1.83;;;;;;;;;;6156814;23;20746;-92
2023/01/06 13:52:19;;;;;;;20.15;2.33;;;;;;;;;;6155533;23;20013;-91
2023/01/06 13:54:45;;;;;;;7.60;1.17;;;;;;;;;;6207108;23;20009;-91
2023/01/06 13:57:20;;;;;;;11.73;1.90;;;;;;;;;;6204324;23;20051;-91
2023/01/06 13:59:50;;;;;;;1.42;1.00;;;;;;;;;;6205675;23;20008;-91
2023/01/06 14:02:37;;;;;;;10.40;1.08;;;;;;;;;;6170726;22;20020;-91
2023/01/06 14:05:05;;;;;;;4.93;1.10;;;;;;;;;;6239166;23;20012;-92
2023/01/06 14:07:32;;;;;;;5.72;1.25;;;;;;;;;;6237334;23;20502;-91
2023/01/06 14:09:58;;;;;;;7.72;0.77;;;;;;;;;;6238926;23;20008;-91
2023/01/06 14:12:24;;;;;;;12.60;1.48;;;;;;;;;;6184317;23;20113;-91
2023/01/06 14:14:57;;;;;;;16.10;3.25;;;;;;;;;;6235648;23;20016;-90
2023/01/06 14:17:45;;;;;;;17.17;1.77;;;;;;;;;;6236393;23;20095;-91
2023/01/06 14:20:22;;;;;;;9.48;2.03;;;;;;;;;;6209069;23;20000;-92
2023/01/06 14:23:09;;;;;;;15.43;1.75;;;;;;;;;;6234616;23;20012;-92
2023/01/06 14:25:39;;;;;;;6.15;1.58;;;;;;;;;;6192619;23;20146;-92
2023/01/06 14:28:06;;;;;;;16.73;1.80;;;;;;;;;;6234932;23;20012;-92
2023/01/06 14:30:34;;;;;;;11.18;1.25;;;;;;;;;;6235168;23;20425;-92
2023/01/06 14:33:04;;;;;;;14.15;2.45;;;;;;;;;;6234179;23;20008;-92
2023/01/06 14:35:42;;;;;;;25.33;2.20;;;;;;;;;;6230469;23;20111;-90
2023/01/06 14:38:30;;;;;;;15.90;2.25;;;;;;;;;;6232677;23;20004;-92
2023/01/06 14:41:02;;;;;;;8.95;1.67;;;;;;;;;;6234609;23;20011;-92
2023/01/06 14:43:30;;;;;;;3.80;1.13;;;;;;;;;;6235604;23;20012;-92
2023/01/06 14:46:03;;;;;;;13.98;2.38;;;;;;;;;;6235632;23;20343;-92
2023/01/06 14:48:31;;;;;;;6.35;1.75;;;;;;;;;;6236023;23;20098;-92
2023/01/06 14:50:57;;;;;;;12.20;1.77;;;;;;;;;;6186197;23;20586;-92
2023/01/06 14:53:30;;;;;;;8.52;2.38;;;;;;;;;;6234515;23;20099;-92
2023/01/06 14:55:59;;;;;;;9.27;2.28;;;;;;;;;;6235690;23;20007;-92
2023/01/06 14:58:35;;;;;;;16.10;2.60;;;;;;;;;;6185280;23;20698;-92
2023/01/06 15:01:08;;;;;;;4.50;0.77;;;;;;;;;;6234367;23;20047;-92
2023/01/06 15:03:40;;;;;;;17.73;2.25;;;;;;;;;;6166021;22;20680;-91
2023/01/06 15:06:17;;;;;;;15.40;2.53;;;;;;;;;;6157869;23;20377;-92
2023/01/06 15:08:44;;;;;;;10.65;2.38;;;;;;;;;;6180955;23;20054;-92
2023/01/06 15:11:19;;;;;;;12.30;1.83;;;;;;;;;;6155055;23;20074;-92
2023/01/06 15:13:45;;;;;;;7.85;1.58;;;;;;;;;;6181192;23;20008;-92
2023/01/06 15:16:30;;;;;;;17.50;2.08;;;;;;;;;;6155754;23;20036;-93
2023/01/06 15:18:56;;;;;;;9.27;1.85;;;;;;;;;;6179745;23;20120;-92
2023/01/06 15:21:23;;;;;;;9.18;1.67;;;;;;;;;;6156759;23;20008;-92
2023/01/06 15:23:50;;;;;;;9.18;1.67;;;;;;;;;;6180388;23;20008;-92
2023/01/06 15:26:25;;;;;;;15.52;1.73;;;;;;;;;;6180426;23;20211;-92
2023/01/06 15:28:57;;;;;;;15.70;1.65;;;;;;;;;;6181007;23;20009;-92
2023/01/06 15:31:23;;;;;;;16.58;2.88;;;;;;;;;;6180947;23;20115;-92
2023/01/06 15:33:51;;;;;;;8.65;1.15;;;;;;;;;;6155916;23;20011;-92
2023/01/06 15:36:19;;;;;;;15.90;3.20;;;;;;;;;;6156169;23;20015;-91
2023/01/06 15:38:46;;;;;;;10.43;1.50;;;;;;;;;;6181521;23;20000;-92
2023/01/06 15:41:36;;;;;;;13.32;2.67;;;;;;;;;;6181508;23;20005;-93
2023/01/06 15:43:58;;;;;;;;;;;;;;;;;;6206029;23;20447;-92
2023/01/06 15:46:25;;;;;;;12.15;1.88;;;;;;;;;;6182902;23;20012;-92
2023/01/06 15:48:52;;;;;;;11.95;2.58;;;;;;;;;;6155728;23;20009;-92
2023/01/06 15:51:19;;;;;;;12.90;1.95;;;;;;;;;;6158769;23;20015;-91
2023/01/06 15:53:53;;;;;;;16.50;2.13;;;;;;;;;;6181898;23;20079;-93
2023/01/06 15:56:21;;;;;;;6.22;1.40;;;;;;;;;;6185139;23;20005;-92
2023/01/06 15:58:48;;;;;;;11.18;2.25;;;;;;;;;;6183366;23;20091;-92
2023/01/06 16:01:16;;;;;;;9.35;1.95;;;;;;;;;;6184694;23;20425;-92
2023/01/06 16:03:46;;;;;;;18.48;2.42;;;;;;;;;;6183964;22;20090;-92
2023/01/06 16:06:13;;;;;;;22.25;2.28;;;;;;;;;;6183672;23;20417;-92
2023/01/06 16:08:40;;;;;;;9.07;2.10;;;;;;;;;;6184118;23;20071;-92
2023/01/06 16:11:11;;;;;;;11.18;1.67;;;;;;;;;;6182929;23;20484;-92
2023/01/06 16:13:39;;;;;;;7.05;1.25;;;;;;;;;;6183284;23;20036;-93
2023/01/06 16:16:08;;;;;;;22.00;2.67;;;;;;;;;;6185111;23;20012;-93
2023/01/06 16:18:35;;;;;;;13.93;1.42;;;;;;;;;;6183639;23;20008;-93
2023/01/06 16:21:16;;;;;;;7.47;2.08;;;;;;;;;;6185480;23;20009;-93